sensor_id;sensor_type;location;lat;lon;timestamp;pressure;altitude;pressure_sealevel;temperature;humidity
61571;BME280;47463;49.884;10.010;2023-02-24T00:00:01;101520;;;6.9;94
61571;BME280;47463;49.884;10.010;2023-02-24T00:05:01;101520;;;6.9;94
61571;BME280;47463;49.884;10.010;2023-02-24T00:10:01;101510;;;6.7;94
61571;BME280;47463;49.884;10.010;2023-02-24T00:15:01;101510;;;6.5;95
61571;BME280;47463;49.884;10.010;2023-02-24T00:20:01;101520;;;6.3;96
61571;BME280;47463;49.884;10.010;2023-02-24T00:25:01;101510;;;6.3;96
61571;BME280;47463;49.884;10.010;2023-02-24T00:30:01;101510;;;6.3;96
61571;BME280;47463;49.884;10.010;2023-02-24T00:35:01;101510;;;6.2;96
61571;BME280;47463;49.884;10.010;2023-02-24T00:40:01;101500;;;6.2;97
61571;BME280;47463;49.884;10.010;2023-02-24T00:45:01;101500;;;6.2;97
61571;BME280;47463;49.884;10.010;2023-02-24T00:50:01;101490;;;6.4;97
61571;BME280;47463;49.884;10.010;2023-02-24T00:55:01;101480;;;6.6;96
61571;BME280;47463;49.884;10.010;2023-02-24T01:00:01;101470;;;6.7;95
61571;BME280;47463;49.884;10.010;2023-02-24T01:05:01;101480;;;6.8;95
61571;BME280;47463;49.884;10.010;2023-02-24T01:10:01;101470;;;6.7;95
61571;BME280;47463;49.884;10.010;2023-02-24T01:15:01;101460;;;6.7;94
61571;BME280;47463;49.884;10.010;2023-02-24T01:20:01;101460;;;6.7;94
61571;BME280;47463;49.884;10.010;2023-02-24T01:25:01;101440;;;6.6;95
61571;BME280;47463;49.884;10.010;2023-02-24T01:30:01;101450;;;6.6;95
61571;BME280;47463;49.884;10.010;2023-02-24T01:35:01;101440;;;6.6;95
61571;BME280;47463;49.884;10.010;2023-02-24T01:40:01;101450;;;6.5;95
61571;BME280;47463;49.884;10.010;2023-02-24T01:45:03;101450;;;6.4;96
61571;BME280;47463;49.884;10.010;2023-02-24T01:50:01;101420;;;6.4;96
61571;BME280;47463;49.884;10.010;2023-02-24T01:55:03;101430;;;6.3;96
61571;BME280;47463;49.884;10.010;2023-02-24T02:00:01;101410;;;6.3;96
61571;BME280;47463;49.884;10.010;2023-02-24T02:05:02;101410;;;6.3;96
61571;BME280;47463;49.884;10.010;2023-02-24T02:10:01;101390;;;6.3;97
61571;BME280;47463;49.884;10.010;2023-02-24T02:15:01;101390;;;6.3;96
61571;BME280;47463;49.884;10.010;2023-02-24T02:20:08;101390;;;6.4;96
61571;BME280;47463;49.884;10.010;2023-02-24T02:25:03;101390;;;6.4;96
61571;BME280;47463;49.884;10.010;2023-02-24T02:30:17;101380;;;6.5;95
61571;BME280;47463;49.884;10.010;2023-02-24T02:35:01;101380;;;6.6;95
61571;BME280;47463;49.884;10.010;2023-02-24T02:40:02;101380;;;6.6;94
61571;BME280;47463;49.884;10.010;2023-02-24T02:45:02;101370;;;6.6;95
61571;BME280;47463;49.884;10.010;2023-02-24T02:50:03;101370;;;6.5;95
61571;BME280;47463;49.884;10.010;2023-02-24T02:55:02;101370;;;6.5;95
61571;BME280;47463;49.884;10.010;2023-02-24T03:00:03;101370;;;6.4;95
61571;BME280;47463;49.884;10.010;2023-02-24T03:05:01;101380;;;6.4;95
61571;BME280;47463;49.884;10.010;2023-02-24T03:10:02;101380;;;6.4;95
61571;BME280;47463;49.884;10.010;2023-02-24T03:15:02;101370;;;6.4;95
61571;BME280;47463;49.884;10.010;2023-02-24T03:20:02;101370;;;6.4;95
61571;BME280;47463;49.884;10.010;2023-02-24T03:25:01;101360;;;6.4;95
61571;BME280;47463;49.884;10.010;2023-02-24T03:30:01;101360;;;6.3;95
61571;BME280;47463;49.884;10.010;2023-02-24T03:35:01;101370;;;6.3;95
61571;BME280;47463;49.884;10.010;2023-02-24T03:40:02;101370;;;6.3;95
61571;BME280;47463;49.884;10.010;2023-02-24T03:45:01;101360;;;6.3;95
61571;BME280;47463;49.884;10.010;2023-02-24T03:50:01;101350;;;6.2;96
61571;BME280;47463;49.884;10.010;2023-02-24T03:55:05;101360;;;6.2;96
61571;BME280;47463;49.884;10.010;2023-02-24T04:00:03;101350;;;6.2;95
61571;BME280;47463;49.884;10.010;2023-02-24T04:05:02;101350;;;6.1;96
61571;BME280;47463;49.884;10.010;2023-02-24T04:10:02;101350;;;6;96
61571;BME280;47463;49.884;10.010;2023-02-24T04:15:02;101350;;;6;96
61571;BME280;47463;49.884;10.010;2023-02-24T04:20:02;101340;;;6;96
61571;BME280;47463;49.884;10.010;2023-02-24T04:25:01;101340;;;6;96
61571;BME280;47463;49.884;10.010;2023-02-24T04:30:01;101330;;;6;96
61571;BME280;47463;49.884;10.010;2023-02-24T04:35:02;101330;;;5.9;96
61571;BME280;47463;49.884;10.010;2023-02-24T04:40:01;101320;;;5.9;96
61571;BME280;47463;49.884;10.010;2023-02-24T04:45:01;101330;;;5.8;96
61571;BME280;47463;49.884;10.010;2023-02-24T04:50:01;101310;;;5.8;96
61571;BME280;47463;49.884;10.010;2023-02-24T04:55:01;101300;;;5.8;96
61571;BME280;47463;49.884;10.010;2023-02-24T05:00:01;101290;;;5.8;96
61571;BME280;47463;49.884;10.010;2023-02-24T05:05:01;101280;;;5.8;96
61571;BME280;47463;49.884;10.010;2023-02-24T05:10:01;101270;;;5.8;96
61571;BME280;47463;49.884;10.010;2023-02-24T05:15:01;101270;;;5.8;96
61571;BME280;47463;49.884;10.010;2023-02-24T05:20:01;101260;;;5.7;96
61571;BME280;47463;49.884;10.010;2023-02-24T05:25:01;101250;;;5.7;96
61571;BME280;47463;49.884;10.010;2023-02-24T05:30:01;101250;;;5.7;96
61571;BME280;47463;49.884;10.010;2023-02-24T05:35:01;101250;;;5.7;96
61571;BME280;47463;49.884;10.010;2023-02-24T05:40:01;101240;;;5.7;96
61571;BME280;47463;49.884;10.010;2023-02-24T05:45:01;101240;;;5.7;96
61571;BME280;47463;49.884;10.010;2023-02-24T05:50:01;101230;;;5.7;96
61571;BME280;47463;49.884;10.010;2023-02-24T05:55:01;101230;;;5.7;96
61571;BME280;47463;49.884;10.010;2023-02-24T06:00:01;101220;;;5.6;96
61571;BME280;47463;49.884;10.010;2023-02-24T06:05:01;101220;;;5.6;96
61571;BME280;47463;49.884;10.010;2023-02-24T06:10:01;101220;;;5.6;96
61571;BME280;47463;49.884;10.010;2023-02-24T06:15:01;101210;;;5.7;96
61571;BME280;47463;49.884;10.010;2023-02-24T06:20:01;101220;;;5.7;96
61571;BME280;47463;49.884;10.010;2023-02-24T06:25:01;101220;;;5.6;96
61571;BME280;47463;49.884;10.010;2023-02-24T06:30:01;101210;;;5.6;96
61571;BME280;47463;49.884;10.010;2023-02-24T06:35:01;101210;;;5.6;96
61571;BME280;47463;49.884;10.010;2023-02-24T06:40:01;101220;;;5.6;96
61571;BME280;47463;49.884;10.010;2023-02-24T06:45:01;101220;;;5.6;97
61571;BME280;47463;49.884;10.010;2023-02-24T06:50:01;101210;;;5.6;97
61571;BME280;47463;49.884;10.010;2023-02-24T06:55:01;101210;;;5.6;97
61571;BME280;47463;49.884;10.010;2023-02-24T07:00:01;101220;;;5.7;97
61571;BME280;47463;49.884;10.010;2023-02-24T07:05:01;101210;;;5.8;96
61571;BME280;47463;49.884;10.010;2023-02-24T07:10:01;101220;;;5.8;96
61571;BME280;47463;49.884;10.010;2023-02-24T07:15:01;101220;;;5.8;95
61571;BME280;47463;49.884;10.010;2023-02-24T07:20:01;101210;;;5.9;95
61571;BME280;47463;49.884;10.010;2023-02-24T07:25:01;101220;;;5.9;94
61571;BME280;47463;49.884;10.010;2023-02-24T07:30:01;101200;;;5.9;94
61571;BME280;47463;49.884;10.010;2023-02-24T07:35:01;101210;;;6;93
61571;BME280;47463;49.884;10.010;2023-02-24T07:40:01;101200;;;6;94
61571;BME280;47463;49.884;10.010;2023-02-24T07:45:01;101200;;;6;94
61571;BME280;47463;49.884;10.010;2023-02-24T07:50:01;101190;;;6;93
61571;BME280;47463;49.884;10.010;2023-02-24T07:55:01;101190;;;6.1;93
61571;BME280;47463;49.884;10.010;2023-02-24T08:00:01;101180;;;6.1;93
61571;BME280;47463;49.884;10.010;2023-02-24T08:05:01;101190;;;6.1;93
61571;BME280;47463;49.884;10.010;2023-02-24T08:10:01;101180;;;6.1;93
61571;BME280;47463;49.884;10.010;2023-02-24T08:15:01;101180;;;6.2;93
61571;BME280;47463;49.884;10.010;2023-02-24T08:20:01;101160;;;6.2;93
61571;BME280;47463;49.884;10.010;2023-02-24T08:25:01;101160;;;6.2;92
61571;BME280;47463;49.884;10.010;2023-02-24T08:30:01;101160;;;6.3;92
61571;BME280;47463;49.884;10.010;2023-02-24T08:35:02;101150;;;6.4;92
61571;BME280;47463;49.884;10.010;2023-02-24T08:40:01;101140;;;6.4;91
61571;BME280;47463;49.884;10.010;2023-02-24T08:45:01;101140;;;6.5;91
61571;BME280;47463;49.884;10.010;2023-02-24T08:50:01;101150;;;6.5;91
61571;BME280;47463;49.884;10.010;2023-02-24T08:55:01;101140;;;6.5;91
61571;BME280;47463;49.884;10.010;2023-02-24T09:00:01;101140;;;6.5;91
61571;BME280;47463;49.884;10.010;2023-02-24T09:05:01;101130;;;6.6;90
61571;BME280;47463;49.884;10.010;2023-02-24T09:10:01;101120;;;6.6;89
61571;BME280;47463;49.884;10.010;2023-02-24T09:15:01;101120;;;6.8;89
61571;BME280;47463;49.884;10.010;2023-02-24T09:20:01;101110;;;6.8;88
61571;BME280;47463;49.884;10.010;2023-02-24T09:25:01;101110;;;6.7;88
61571;BME280;47463;49.884;10.010;2023-02-24T09:30:01;101100;;;6.8;89
61571;BME280;47463;49.884;10.010;2023-02-24T09:35:01;101100;;;6.7;89
61571;BME280;47463;49.884;10.010;2023-02-24T09:40:01;101090;;;6.7;89
61571;BME280;47463;49.884;10.010;2023-02-24T09:45:01;101080;;;6.7;88
61571;BME280;47463;49.884;10.010;2023-02-24T09:50:02;101070;;;6.7;89
61571;BME280;47463;49.884;10.010;2023-02-24T09:55:01;101070;;;6.6;89
61571;BME280;47463;49.884;10.010;2023-02-24T10:00:03;101060;;;6.6;88
61571;BME280;47463;49.884;10.010;2023-02-24T10:05:02;101060;;;6.6;88
61571;BME280;47463;49.884;10.010;2023-02-24T10:10:02;101060;;;6.6;88
61571;BME280;47463;49.884;10.010;2023-02-24T10:15:01;101050;;;6.6;88
61571;BME280;47463;49.884;10.010;2023-02-24T10:20:07;101030;;;6.7;88
61571;BME280;47463;49.884;10.010;2023-02-24T10:25:02;101040;;;6.8;87
61571;BME280;47463;49.884;10.010;2023-02-24T10:30:02;101020;;;6.9;87
61571;BME280;47463;49.884;10.010;2023-02-24T10:35:01;101010;;;6.9;86
61571;BME280;47463;49.884;10.010;2023-02-24T10:40:02;101000;;;7;87
61571;BME280;47463;49.884;10.010;2023-02-24T10:45:05;101000;;;7;86
61571;BME280;47463;49.884;10.010;2023-02-24T10:50:03;100990;;;7.1;84
61571;BME280;47463;49.884;10.010;2023-02-24T10:55:02;100990;;;7.1;85
61571;BME280;47463;49.884;10.010;2023-02-24T11:00:04;100980;;;7.3;84
61571;BME280;47463;49.884;10.010;2023-02-24T11:05:04;100970;;;7.3;83
61571;BME280;47463;49.884;10.010;2023-02-24T11:10:02;100950;;;7.4;83
61571;BME280;47463;49.884;10.010;2023-02-24T11:15:02;100950;;;7.4;82
61571;BME280;47463;49.884;10.010;2023-02-24T11:20:02;100930;;;7.4;80
61571;BME280;47463;49.884;10.010;2023-02-24T11:25:02;100920;;;7.6;81
61571;BME280;47463;49.884;10.010;2023-02-24T11:30:04;100920;;;7.7;79
61571;BME280;47463;49.884;10.010;2023-02-24T11:35:01;100900;;;7.8;78
61571;BME280;47463;49.884;10.010;2023-02-24T11:40:01;100900;;;7.9;76
61571;BME280;47463;49.884;10.010;2023-02-24T11:45:02;100900;;;7.9;75
61571;BME280;47463;49.884;10.010;2023-02-24T11:50:03;100890;;;7.8;74
61571;BME280;47463;49.884;10.010;2023-02-24T11:55:02;100870;;;7.8;74
61571;BME280;47463;49.884;10.010;2023-02-24T12:00:02;100860;;;7.9;73
61571;BME280;47463;49.884;10.010;2023-02-24T12:05:02;100860;;;7.9;73
61571;BME280;47463;49.884;10.010;2023-02-24T12:10:02;100840;;;7.8;73
61571;BME280;47463;49.884;10.010;2023-02-24T12:15:01;100820;;;7.8;74
61571;BME280;47463;49.884;10.010;2023-02-24T12:20:01;100810;;;7.9;73
61571;BME280;47463;49.884;10.010;2023-02-24T12:25:01;100800;;;8;73
61571;BME280;47463;49.884;10.010;2023-02-24T12:30:04;100800;;;8.2;74
61571;BME280;47463;49.884;10.010;2023-02-24T12:35:02;100790;;;8;73
61571;BME280;47463;49.884;10.010;2023-02-24T12:40:02;100770;;;8;72
61571;BME280;47463;49.884;10.010;2023-02-24T12:45:03;100760;;;8;72
61571;BME280;47463;49.884;10.010;2023-02-24T12:50:05;100750;;;8.1;72
61571;BME280;47463;49.884;10.010;2023-02-24T12:55:04;100750;;;8.2;71
61571;BME280;47463;49.884;10.010;2023-02-24T13:00:02;100750;;;8.2;70
61571;BME280;47463;49.884;10.010;2023-02-24T13:05:01;100730;;;8.3;70
61571;BME280;47463;49.884;10.010;2023-02-24T13:10:03;100710;;;8.2;69
61571;BME280;47463;49.884;10.010;2023-02-24T13:15:01;100710;;;8.3;68
61571;BME280;47463;49.884;10.010;2023-02-24T13:20:08;100700;;;8.4;68
61571;BME280;47463;49.884;10.010;2023-02-24T13:25:11;100690;;;8.2;67
61571;BME280;47463;49.884;10.010;2023-02-24T13:30:02;100670;;;8.2;67
61571;BME280;47463;49.884;10.010;2023-02-24T13:35:02;100670;;;8.3;67
61571;BME280;47463;49.884;10.010;2023-02-24T13:40:11;100670;;;8.3;67
61571;BME280;47463;49.884;10.010;2023-02-24T13:45:02;100650;;;8.3;67
61571;BME280;47463;49.884;10.010;2023-02-24T13:50:07;100640;;;8.2;67
61571;BME280;47463;49.884;10.010;2023-02-24T13:55:04;100640;;;8.2;66
61571;BME280;47463;49.884;10.010;2023-02-24T14:00:02;100630;;;8.2;66
61571;BME280;47463;49.884;10.010;2023-02-24T14:05:01;100630;;;8.2;65
61571;BME280;47463;49.884;10.010;2023-02-24T14:10:01;100630;;;8.3;66
61571;BME280;47463;49.884;10.010;2023-02-24T14:15:01;100630;;;8.2;66
61571;BME280;47463;49.884;10.010;2023-02-24T14:20:17;100620;;;8.2;67
61571;BME280;47463;49.884;10.010;2023-02-24T14:25:01;100610;;;8.2;66
61571;BME280;47463;49.884;10.010;2023-02-24T14:30:01;100600;;;8.2;67
61571;BME280;47463;49.884;10.010;2023-02-24T14:35:01;100600;;;8.3;66
61571;BME280;47463;49.884;10.010;2023-02-24T14:40:01;100600;;;8.3;65
61571;BME280;47463;49.884;10.010;2023-02-24T14:45:01;100600;;;8.3;65
61571;BME280;47463;49.884;10.010;2023-02-24T14:50:02;100590;;;8.3;64
61571;BME280;47463;49.884;10.010;2023-02-24T14:55:01;100580;;;8.3;65
61571;BME280;47463;49.884;10.010;2023-02-24T15:00:03;100580;;;8;64
61571;BME280;47463;49.884;10.010;2023-02-24T15:05:01;100580;;;8;65
61571;BME280;47463;49.884;10.010;2023-02-24T15:10:01;100580;;;7.9;65
61571;BME280;47463;49.884;10.010;2023-02-24T15:15:02;100570;;;7.8;65
61571;BME280;47463;49.884;10.010;2023-02-24T15:20:01;100550;;;7.7;65
61571;BME280;47463;49.884;10.010;2023-02-24T15:25:09;100560;;;7.7;65
61571;BME280;47463;49.884;10.010;2023-02-24T15:30:03;100550;;;7.6;65
61571;BME280;47463;49.884;10.010;2023-02-24T15:35:01;100540;;;7.6;65
61571;BME280;47463;49.884;10.010;2023-02-24T15:40:02;100530;;;7.5;66
61571;BME280;47463;49.884;10.010;2023-02-24T15:45:01;100520;;;7.5;66
61571;BME280;47463;49.884;10.010;2023-02-24T15:50:01;100510;;;7.5;66
61571;BME280;47463;49.884;10.010;2023-02-24T15:55:01;100520;;;7.4;66
61571;BME280;47463;49.884;10.010;2023-02-24T16:00:01;100520;;;7.4;66
61571;BME280;47463;49.884;10.010;2023-02-24T16:05:01;100510;;;7.4;66
61571;BME280;47463;49.884;10.010;2023-02-24T16:10:01;100510;;;7.3;66
61571;BME280;47463;49.884;10.010;2023-02-24T16:15:02;100500;;;7.4;65
61571;BME280;47463;49.884;10.010;2023-02-24T16:20:01;100500;;;7.3;66
61571;BME280;47463;49.884;10.010;2023-02-24T16:25:01;100500;;;7.2;66
61571;BME280;47463;49.884;10.010;2023-02-24T16:30:01;100500;;;7.1;67
61571;BME280;47463;49.884;10.010;2023-02-24T16:35:01;100500;;;7;67
61571;BME280;47463;49.884;10.010;2023-02-24T16:40:01;100500;;;6.9;68
61571;BME280;47463;49.884;10.010;2023-02-24T16:45:01;100490;;;6.8;68
61571;BME280;47463;49.884;10.010;2023-02-24T16:50:01;100500;;;6.7;69
61571;BME280;47463;49.884;10.010;2023-02-24T16:55:01;100500;;;6.6;69
61571;BME280;47463;49.884;10.010;2023-02-24T17:00:01;100500;;;6.5;70
61571;BME280;47463;49.884;10.010;2023-02-24T17:05:01;100510;;;6.5;70
61571;BME280;47463;49.884;10.010;2023-02-24T17:10:01;100500;;;6.5;70
61571;BME280;47463;49.884;10.010;2023-02-24T17:15:01;100510;;;6.4;70
61571;BME280;47463;49.884;10.010;2023-02-24T17:20:01;100500;;;6.3;71
61571;BME280;47463;49.884;10.010;2023-02-24T17:25:01;100500;;;6.2;73
61571;BME280;47463;49.884;10.010;2023-02-24T17:30:01;100520;;;5.7;76
61571;BME280;47463;49.884;10.010;2023-02-24T17:35:01;100520;;;5.3;80
61571;BME280;47463;49.884;10.010;2023-02-24T17:40:01;100530;;;5;82
61571;BME280;47463;49.884;10.010;2023-02-24T17:45:01;100540;;;4.7;84
61571;BME280;47463;49.884;10.010;2023-02-24T17:50:01;100540;;;4.4;86
61571;BME280;47463;49.884;10.010;2023-02-24T17:55:01;100540;;;4.2;87
61571;BME280;47463;49.884;10.010;2023-02-24T18:00:01;100560;;;4.1;88
61571;BME280;47463;49.884;10.010;2023-02-24T18:05:01;100560;;;3.9;89
61571;BME280;47463;49.884;10.010;2023-02-24T18:10:01;100570;;;3.7;89
61571;BME280;47463;49.884;10.010;2023-02-24T18:15:01;100570;;;3.6;90
61571;BME280;47463;49.884;10.010;2023-02-24T18:20:01;100570;;;3.5;91
61571;BME280;47463;49.884;10.010;2023-02-24T18:25:01;100560;;;3.4;91
61571;BME280;47463;49.884;10.010;2023-02-24T18:30:01;100570;;;3.4;91
61571;BME280;47463;49.884;10.010;2023-02-24T18:35:01;100560;;;3.3;92
61571;BME280;47463;49.884;10.010;2023-02-24T18:40:01;100580;;;3.3;92
61571;BME280;47463;49.884;10.010;2023-02-24T18:45:01;100570;;;3.3;93
61571;BME280;47463;49.884;10.010;2023-02-24T18:50:01;100570;;;3.3;93
61571;BME280;47463;49.884;10.010;2023-02-24T18:55:01;100570;;;3.3;93
61571;BME280;47463;49.884;10.010;2023-02-24T19:00:01;100570;;;3.2;93
61571;BME280;47463;49.884;10.010;2023-02-24T19:05:01;100580;;;3.2;94
61571;BME280;47463;49.884;10.010;2023-02-24T19:10:01;100560;;;3.1;93
61571;BME280;47463;49.884;10.010;2023-02-24T19:15:01;100570;;;3.1;93
61571;BME280;47463;49.884;10.010;2023-02-24T19:20:01;100570;;;3;93
61571;BME280;47463;49.884;10.010;2023-02-24T19:25:01;100560;;;2.9;93
61571;BME280;47463;49.884;10.010;2023-02-24T19:30:01;100540;;;2.9;95
61571;BME280;47463;49.884;10.010;2023-02-24T19:35:01;100530;;;2.9;95
61571;BME280;47463;49.884;10.010;2023-02-24T19:40:01;100530;;;2.8;95
61571;BME280;47463;49.884;10.010;2023-02-24T19:45:01;100540;;;2.8;95
61571;BME280;47463;49.884;10.010;2023-02-24T19:50:01;100560;;;2.8;96
61571;BME280;47463;49.884;10.010;2023-02-24T19:55:01;100550;;;2.7;96
61571;BME280;47463;49.884;10.010;2023-02-24T20:00:01;100550;;;2.7;96
61571;BME280;47463;49.884;10.010;2023-02-24T20:05:01;100550;;;2.8;96
61571;BME280;47463;49.884;10.010;2023-02-24T20:10:01;100560;;;2.7;96
61571;BME280;47463;49.884;10.010;2023-02-24T20:15:01;100560;;;2.7;96
61571;BME280;47463;49.884;10.010;2023-02-24T20:20:01;100570;;;2.7;96
61571;BME280;47463;49.884;10.010;2023-02-24T20:25:01;100560;;;2.6;97
61571;BME280;47463;49.884;10.010;2023-02-24T20:30:01;100560;;;2.6;97
61571;BME280;47463;49.884;10.010;2023-02-24T20:35:01;100550;;;2.6;96
61571;BME280;47463;49.884;10.010;2023-02-24T20:40:01;100560;;;2.6;96
61571;BME280;47463;49.884;10.010;2023-02-24T20:45:01;100560;;;2.7;97
61571;BME280;47463;49.884;10.010;2023-02-24T20:50:01;100560;;;2.7;97
61571;BME280;47463;49.884;10.010;2023-02-24T20:55:01;100570;;;2.7;97
61571;BME280;47463;49.884;10.010;2023-02-24T21:00:01;100560;;;2.7;97
61571;BME280;47463;49.884;10.010;2023-02-24T21:05:01;100560;;;2.7;97
61571;BME280;47463;49.884;10.010;2023-02-24T21:10:01;100560;;;2.7;97
61571;BME280;47463;49.884;10.010;2023-02-24T21:15:01;100550;;;2.7;97
61571;BME280;47463;49.884;10.010;2023-02-24T21:20:01;100550;;;2.7;97
61571;BME280;47463;49.884;10.010;2023-02-24T21:25:01;100550;;;2.7;97
61571;BME280;47463;49.884;10.010;2023-02-24T21:30:01;100530;;;2.7;97
61571;BME280;47463;49.884;10.010;2023-02-24T21:35:01;100510;;;2.7;97
61571;BME280;47463;49.884;10.010;2023-02-24T21:40:01;100510;;;2.7;97
61571;BME280;47463;49.884;10.010;2023-02-24T21:45:01;100520;;;2.7;97
61571;BME280;47463;49.884;10.010;2023-02-24T21:50:01;100510;;;2.8;96
61571;BME280;47463;49.884;10.010;2023-02-24T21:55:01;100510;;;2.8;96
61571;BME280;47463;49.884;10.010;2023-02-24T22:00:01;100510;;;2.8;96
61571;BME280;47463;49.884;10.010;2023-02-24T22:05:01;100520;;;2.9;96
61571;BME280;47463;49.884;10.010;2023-02-24T22:10:01;100530;;;3;96
61571;BME280;47463;49.884;10.010;2023-02-24T22:15:01;100520;;;3;96
61571;BME280;47463;49.884;10.010;2023-02-24T22:20:01;100510;;;3;96
61571;BME280;47463;49.884;10.010;2023-02-24T22:25:01;100520;;;3;96
61571;BME280;47463;49.884;10.010;2023-02-24T22:30:01;100530;;;3;96
61571;BME280;47463;49.884;10.010;2023-02-24T22:35:01;100530;;;3.1;96
61571;BME280;47463;49.884;10.010;2023-02-24T22:40:01;100550;;;3.1;96
61571;BME280;47463;49.884;10.010;2023-02-24T22:45:01;100550;;;3.1;95
61571;BME280;47463;49.884;10.010;2023-02-24T22:50:01;100550;;;3.1;96
61571;BME280;47463;49.884;10.010;2023-02-24T22:55:01;100560;;;3.1;96
61571;BME280;47463;49.884;10.010;2023-02-24T23:00:01;100550;;;3;96
61571;BME280;47463;49.884;10.010;2023-02-24T23:05:01;100550;;;3;96
61571;BME280;47463;49.884;10.010;2023-02-24T23:10:01;100550;;;3.1;97
61571;BME280;47463;49.884;10.010;2023-02-24T23:15:01;100560;;;3.1;96
61571;BME280;47463;49.884;10.010;2023-02-24T23:20:01;100570;;;3.1;96
61571;BME280;47463;49.884;10.010;2023-02-24T23:25:01;100590;;;3.2;96
61571;BME280;47463;49.884;10.010;2023-02-24T23:30:01;100590;;;3.2;96
61571;BME280;47463;49.884;10.010;2023-02-24T23:35:01;100590;;;3.2;95
61571;BME280;47463;49.884;10.010;2023-02-24T23:40:01;100580;;;3.1;95
61571;BME280;47463;49.884;10.010;2023-02-24T23:45:01;100580;;;3.2;94
61571;BME280;47463;49.884;10.010;2023-02-24T23:50:01;100600;;;3.3;93
61571;BME280;47463;49.884;10.010;2023-02-24T23:55:01;100600;;;3.2;93
